sensor_id;sensor_type;location;lat;lon;timestamp;temperature;humidity
23471;DHT22;11908;50.806;4.424;2023-02-03T00:01:29;9.70;99.90
23471;DHT22;11908;50.806;4.424;2023-02-03T00:03:54;9.60;99.90
23471;DHT22;11908;50.806;4.424;2023-02-03T00:06:20;9.60;99.90
23471;DHT22;11908;50.806;4.424;2023-02-03T00:08:46;9.60;99.90
23471;DHT22;11908;50.806;4.424;2023-02-03T00:11:12;9.60;99.90
23471;DHT22;11908;50.806;4.424;2023-02-03T00:13:37;9.60;99.90
23471;DHT22;11908;50.806;4.424;2023-02-03T00:16:04;9.70;99.90
23471;DHT22;11908;50.806;4.424;2023-02-03T00:18:32;9.60;99.90
23471;DHT22;11908;50.806;4.424;2023-02-03T00:20:58;9.60;99.90
23471;DHT22;11908;50.806;4.424;2023-02-03T00:23:23;9.60;99.90
23471;DHT22;11908;50.806;4.424;2023-02-03T00:25:50;9.60;99.90
23471;DHT22;11908;50.806;4.424;2023-02-03T00:28:16;9.60;99.90
23471;DHT22;11908;50.806;4.424;2023-02-03T00:30:42;9.70;99.90
23471;DHT22;11908;50.806;4.424;2023-02-03T00:33:07;9.70;99.90
23471;DHT22;11908;50.806;4.424;2023-02-03T00:35:37;9.70;99.90
23471;DHT22;11908;50.806;4.424;2023-02-03T00:38:02;9.70;99.90
23471;DHT22;11908;50.806;4.424;2023-02-03T00:40:28;9.70;99.90
23471;DHT22;11908;50.806;4.424;2023-02-03T00:42:54;9.70;99.90
23471;DHT22;11908;50.806;4.424;2023-02-03T00:45:20;9.80;99.90
23471;DHT22;11908;50.806;4.424;2023-02-03T00:47:46;9.70;99.90
23471;DHT22;11908;50.806;4.424;2023-02-03T00:50:12;9.70;99.90
23471;DHT22;11908;50.806;4.424;2023-02-03T00:52:37;9.70;99.90
23471;DHT22;11908;50.806;4.424;2023-02-03T00:55:04;9.70;99.90
23471;DHT22;11908;50.806;4.424;2023-02-03T00:57:30;9.70;99.90
23471;DHT22;11908;50.806;4.424;2023-02-03T00:59:56;9.60;99.90
23471;DHT22;11908;50.806;4.424;2023-02-03T01:02:23;9.60;99.90
23471;DHT22;11908;50.806;4.424;2023-02-03T01:04:48;9.60;99.90
23471;DHT22;11908;50.806;4.424;2023-02-03T01:07:14;9.70;99.90
23471;DHT22;11908;50.806;4.424;2023-02-03T01:09:40;9.70;99.90
23471;DHT22;11908;50.806;4.424;2023-02-03T01:12:06;9.70;99.90
23471;DHT22;11908;50.806;4.424;2023-02-03T01:14:32;9.90;99.90
23471;DHT22;11908;50.806;4.424;2023-02-03T01:16:58;9.90;99.90
23471;DHT22;11908;50.806;4.424;2023-02-03T01:19:24;9.90;99.90
23471;DHT22;11908;50.806;4.424;2023-02-03T01:21:50;9.90;99.90
23471;DHT22;11908;50.806;4.424;2023-02-03T01:24:16;9.80;99.90
23471;DHT22;11908;50.806;4.424;2023-02-03T01:26:41;9.90;99.90
23471;DHT22;11908;50.806;4.424;2023-02-03T01:29:08;9.90;99.90
23471;DHT22;11908;50.806;4.424;2023-02-03T01:31:36;9.80;99.90
23471;DHT22;11908;50.806;4.424;2023-02-03T01:34:06;9.80;99.90
23471;DHT22;11908;50.806;4.424;2023-02-03T01:36:33;9.80;99.90
23471;DHT22;11908;50.806;4.424;2023-02-03T01:38:59;9.70;99.90
23471;DHT22;11908;50.806;4.424;2023-02-03T01:41:30;9.70;99.90
23471;DHT22;11908;50.806;4.424;2023-02-03T01:43:58;9.80;99.90
23471;DHT22;11908;50.806;4.424;2023-02-03T01:46:37;9.80;99.90
23471;DHT22;11908;50.806;4.424;2023-02-03T01:51:38;9.70;99.90
23471;DHT22;11908;50.806;4.424;2023-02-03T01:54:07;9.80;99.90
23471;DHT22;11908;50.806;4.424;2023-02-03T01:56:37;9.90;99.90
23471;DHT22;11908;50.806;4.424;2023-02-03T01:59:04;9.90;99.90
23471;DHT22;11908;50.806;4.424;2023-02-03T02:01:30;9.80;99.90
23471;DHT22;11908;50.806;4.424;2023-02-03T02:03:59;9.90;99.90
23471;DHT22;11908;50.806;4.424;2023-02-03T02:06:26;9.80;99.90
23471;DHT22;11908;50.806;4.424;2023-02-03T02:08:52;9.80;99.90
23471;DHT22;11908;50.806;4.424;2023-02-03T02:11:19;9.90;99.90
23471;DHT22;11908;50.806;4.424;2023-02-03T02:13:50;9.90;99.90
23471;DHT22;11908;50.806;4.424;2023-02-03T02:16:56;9.90;99.90
23471;DHT22;11908;50.806;4.424;2023-02-03T02:19:43;9.90;99.90
23471;DHT22;11908;50.806;4.424;2023-02-03T02:28:23;10.00;99.90
23471;DHT22;11908;50.806;4.424;2023-02-03T02:36:34;9.90;99.90
23471;DHT22;11908;50.806;4.424;2023-02-03T02:40:01;10.00;99.90
23471;DHT22;11908;50.806;4.424;2023-02-03T02:42:06;9.90;99.90
23471;DHT22;11908;50.806;4.424;2023-02-03T02:44:36;9.90;99.90
23471;DHT22;11908;50.806;4.424;2023-02-03T02:47:16;9.90;99.90
23471;DHT22;11908;50.806;4.424;2023-02-03T02:50:20;9.90;99.90
23471;DHT22;11908;50.806;4.424;2023-02-03T02:52:49;9.90;99.90
23471;DHT22;11908;50.806;4.424;2023-02-03T02:55:21;9.90;99.90
23471;DHT22;11908;50.806;4.424;2023-02-03T02:57:53;9.80;99.90
23471;DHT22;11908;50.806;4.424;2023-02-03T03:00:21;9.90;99.90
23471;DHT22;11908;50.806;4.424;2023-02-03T03:02:47;9.80;99.90
23471;DHT22;11908;50.806;4.424;2023-02-03T03:05:13;9.90;99.90
23471;DHT22;11908;50.806;4.424;2023-02-03T03:07:47;9.80;99.90
23471;DHT22;11908;50.806;4.424;2023-02-03T03:10:19;9.80;99.90
23471;DHT22;11908;50.806;4.424;2023-02-03T03:12:52;9.90;99.90
23471;DHT22;11908;50.806;4.424;2023-02-03T03:15:23;9.90;99.90
23471;DHT22;11908;50.806;4.424;2023-02-03T03:18:04;9.90;99.90
23471;DHT22;11908;50.806;4.424;2023-02-03T03:20:32;9.90;99.90
23471;DHT22;11908;50.806;4.424;2023-02-03T03:23:04;9.90;99.90
23471;DHT22;11908;50.806;4.424;2023-02-03T03:25:35;9.90;99.90
23471;DHT22;11908;50.806;4.424;2023-02-03T03:28:07;9.90;99.90
23471;DHT22;11908;50.806;4.424;2023-02-03T03:30:36;9.90;99.90
23471;DHT22;11908;50.806;4.424;2023-02-03T03:33:04;9.80;99.90
23471;DHT22;11908;50.806;4.424;2023-02-03T03:35:45;9.80;99.90
23471;DHT22;11908;50.806;4.424;2023-02-03T03:38:31;9.80;99.90
23471;DHT22;11908;50.806;4.424;2023-02-03T03:41:05;9.80;99.90
23471;DHT22;11908;50.806;4.424;2023-02-03T03:43:37;9.80;99.90
23471;DHT22;11908;50.806;4.424;2023-02-03T03:51:13;9.80;99.90
23471;DHT22;11908;50.806;4.424;2023-02-03T03:53:41;9.90;99.90
23471;DHT22;11908;50.806;4.424;2023-02-03T03:56:11;10.00;99.90
23471;DHT22;11908;50.806;4.424;2023-02-03T03:58:41;9.90;99.90
23471;DHT22;11908;50.806;4.424;2023-02-03T04:01:10;10.00;99.90
23471;DHT22;11908;50.806;4.424;2023-02-03T04:03:44;10.00;99.90
23471;DHT22;11908;50.806;4.424;2023-02-03T04:06:11;10.10;99.90
23471;DHT22;11908;50.806;4.424;2023-02-03T04:08:37;10.00;99.90
23471;DHT22;11908;50.806;4.424;2023-02-03T04:11:04;10.00;99.90
23471;DHT22;11908;50.806;4.424;2023-02-03T04:13:30;9.90;99.90
23471;DHT22;11908;50.806;4.424;2023-02-03T04:15:55;9.90;99.90
23471;DHT22;11908;50.806;4.424;2023-02-03T04:18:21;9.90;99.90
23471;DHT22;11908;50.806;4.424;2023-02-03T04:20:47;9.90;99.90
23471;DHT22;11908;50.806;4.424;2023-02-03T04:23:12;9.90;99.90
23471;DHT22;11908;50.806;4.424;2023-02-03T04:25:38;9.90;99.90
23471;DHT22;11908;50.806;4.424;2023-02-03T04:28:04;9.90;99.90
23471;DHT22;11908;50.806;4.424;2023-02-03T04:30:30;10.00;99.90
23471;DHT22;11908;50.806;4.424;2023-02-03T04:32:56;10.00;99.90
23471;DHT22;11908;50.806;4.424;2023-02-03T04:35:21;10.00;99.90
23471;DHT22;11908;50.806;4.424;2023-02-03T04:37:47;9.90;99.90
23471;DHT22;11908;50.806;4.424;2023-02-03T04:40:13;9.90;99.90
23471;DHT22;11908;50.806;4.424;2023-02-03T04:42:39;9.90;99.90
23471;DHT22;11908;50.806;4.424;2023-02-03T04:45:07;10.00;99.90
23471;DHT22;11908;50.806;4.424;2023-02-03T04:47:33;9.90;99.90
23471;DHT22;11908;50.806;4.424;2023-02-03T04:49:59;9.90;99.90
23471;DHT22;11908;50.806;4.424;2023-02-03T04:52:25;9.90;99.90
23471;DHT22;11908;50.806;4.424;2023-02-03T04:54:50;10.00;99.90
23471;DHT22;11908;50.806;4.424;2023-02-03T04:57:16;10.00;99.90
23471;DHT22;11908;50.806;4.424;2023-02-03T04:59:42;10.00;99.90
23471;DHT22;11908;50.806;4.424;2023-02-03T05:02:07;9.90;99.90
23471;DHT22;11908;50.806;4.424;2023-02-03T05:04:33;9.90;99.90
23471;DHT22;11908;50.806;4.424;2023-02-03T05:06:59;9.90;99.90
23471;DHT22;11908;50.806;4.424;2023-02-03T05:09:25;9.90;99.90
23471;DHT22;11908;50.806;4.424;2023-02-03T05:11:51;9.90;99.90
23471;DHT22;11908;50.806;4.424;2023-02-03T05:14:17;9.90;99.90
23471;DHT22;11908;50.806;4.424;2023-02-03T05:16:43;9.80;99.90
23471;DHT22;11908;50.806;4.424;2023-02-03T05:19:08;9.80;99.90
23471;DHT22;11908;50.806;4.424;2023-02-03T05:21:34;9.90;99.90
23471;DHT22;11908;50.806;4.424;2023-02-03T05:24:00;10.00;99.90
23471;DHT22;11908;50.806;4.424;2023-02-03T05:26:27;10.00;99.90
23471;DHT22;11908;50.806;4.424;2023-02-03T05:28:53;9.90;99.90
23471;DHT22;11908;50.806;4.424;2023-02-03T05:31:19;10.00;99.90
23471;DHT22;11908;50.806;4.424;2023-02-03T05:33:44;9.90;99.90
23471;DHT22;11908;50.806;4.424;2023-02-03T05:36:10;9.80;99.90
23471;DHT22;11908;50.806;4.424;2023-02-03T05:38:36;9.90;99.90
23471;DHT22;11908;50.806;4.424;2023-02-03T05:41:01;9.80;99.90
23471;DHT22;11908;50.806;4.424;2023-02-03T05:43:45;9.80;99.90
23471;DHT22;11908;50.806;4.424;2023-02-03T05:46:11;9.80;99.90
23471;DHT22;11908;50.806;4.424;2023-02-03T05:48:37;9.80;99.90
23471;DHT22;11908;50.806;4.424;2023-02-03T05:51:03;9.80;99.90
23471;DHT22;11908;50.806;4.424;2023-02-03T05:53:28;9.80;99.90
23471;DHT22;11908;50.806;4.424;2023-02-03T05:55:54;9.80;99.90
23471;DHT22;11908;50.806;4.424;2023-02-03T05:58:19;9.90;99.90
23471;DHT22;11908;50.806;4.424;2023-02-03T06:00:45;9.90;99.90
23471;DHT22;11908;50.806;4.424;2023-02-03T06:03:11;9.80;99.90
23471;DHT22;11908;50.806;4.424;2023-02-03T06:05:37;9.80;99.90
23471;DHT22;11908;50.806;4.424;2023-02-03T06:08:06;9.90;99.90
23471;DHT22;11908;50.806;4.424;2023-02-03T06:10:32;9.80;99.90
23471;DHT22;11908;50.806;4.424;2023-02-03T06:12:58;9.80;99.90
23471;DHT22;11908;50.806;4.424;2023-02-03T06:15:24;9.70;99.90
23471;DHT22;11908;50.806;4.424;2023-02-03T06:17:50;9.70;99.90
23471;DHT22;11908;50.806;4.424;2023-02-03T06:20:18;9.70;99.90
23471;DHT22;11908;50.806;4.424;2023-02-03T06:22:44;9.80;99.90
23471;DHT22;11908;50.806;4.424;2023-02-03T06:25:10;9.90;99.90
23471;DHT22;11908;50.806;4.424;2023-02-03T06:27:36;9.90;99.90
23471;DHT22;11908;50.806;4.424;2023-02-03T06:30:02;9.80;99.90
23471;DHT22;11908;50.806;4.424;2023-02-03T06:32:28;9.80;99.90
23471;DHT22;11908;50.806;4.424;2023-02-03T06:34:54;9.80;99.90
23471;DHT22;11908;50.806;4.424;2023-02-03T06:37:19;9.80;99.90
23471;DHT22;11908;50.806;4.424;2023-02-03T06:39:45;9.80;99.90
23471;DHT22;11908;50.806;4.424;2023-02-03T06:42:11;9.80;99.90
23471;DHT22;11908;50.806;4.424;2023-02-03T06:44:37;9.70;99.90
23471;DHT22;11908;50.806;4.424;2023-02-03T06:47:02;9.70;99.90
23471;DHT22;11908;50.806;4.424;2023-02-03T06:49:28;9.80;99.90
23471;DHT22;11908;50.806;4.424;2023-02-03T06:51:54;9.80;99.90
23471;DHT22;11908;50.806;4.424;2023-02-03T06:54:20;9.80;99.90
23471;DHT22;11908;50.806;4.424;2023-02-03T06:56:46;9.80;99.90
23471;DHT22;11908;50.806;4.424;2023-02-03T06:59:12;9.90;99.90
23471;DHT22;11908;50.806;4.424;2023-02-03T07:01:37;9.90;99.90
23471;DHT22;11908;50.806;4.424;2023-02-03T07:04:03;9.90;99.90
23471;DHT22;11908;50.806;4.424;2023-02-03T07:06:30;9.90;99.90
23471;DHT22;11908;50.806;4.424;2023-02-03T07:08:59;9.90;99.90
23471;DHT22;11908;50.806;4.424;2023-02-03T07:11:25;9.90;99.90
23471;DHT22;11908;50.806;4.424;2023-02-03T07:13:52;10.00;99.90
23471;DHT22;11908;50.806;4.424;2023-02-03T07:16:18;9.90;99.90
23471;DHT22;11908;50.806;4.424;2023-02-03T07:18:44;9.90;99.90
23471;DHT22;11908;50.806;4.424;2023-02-03T07:21:11;9.90;99.90
23471;DHT22;11908;50.806;4.424;2023-02-03T07:23:36;9.80;99.90
23471;DHT22;11908;50.806;4.424;2023-02-03T07:26:03;9.90;99.90
23471;DHT22;11908;50.806;4.424;2023-02-03T07:28:30;9.90;99.90
23471;DHT22;11908;50.806;4.424;2023-02-03T07:30:56;9.90;99.90
23471;DHT22;11908;50.806;4.424;2023-02-03T07:33:22;9.90;99.90
23471;DHT22;11908;50.806;4.424;2023-02-03T07:35:52;9.80;99.90
23471;DHT22;11908;50.806;4.424;2023-02-03T07:38:18;9.90;99.90
23471;DHT22;11908;50.806;4.424;2023-02-03T07:40:44;9.90;99.90
23471;DHT22;11908;50.806;4.424;2023-02-03T07:43:09;9.90;99.90
23471;DHT22;11908;50.806;4.424;2023-02-03T07:45:35;9.90;99.90
23471;DHT22;11908;50.806;4.424;2023-02-03T07:48:01;9.90;99.90
23471;DHT22;11908;50.806;4.424;2023-02-03T07:50:28;9.90;99.90
23471;DHT22;11908;50.806;4.424;2023-02-03T07:52:53;9.90;99.90
23471;DHT22;11908;50.806;4.424;2023-02-03T07:55:20;10.00;99.90
23471;DHT22;11908;50.806;4.424;2023-02-03T07:57:46;10.00;99.90
23471;DHT22;11908;50.806;4.424;2023-02-03T08:00:14;10.00;99.90
23471;DHT22;11908;50.806;4.424;2023-02-03T08:02:41;10.00;99.90
23471;DHT22;11908;50.806;4.424;2023-02-03T08:05:08;10.00;99.90
23471;DHT22;11908;50.806;4.424;2023-02-03T08:07:34;10.10;99.90
23471;DHT22;11908;50.806;4.424;2023-02-03T08:10:00;10.10;99.90
23471;DHT22;11908;50.806;4.424;2023-02-03T08:12:25;10.10;99.90
23471;DHT22;11908;50.806;4.424;2023-02-03T08:14:51;10.10;99.90
23471;DHT22;11908;50.806;4.424;2023-02-03T08:17:17;10.10;99.90
23471;DHT22;11908;50.806;4.424;2023-02-03T08:19:42;10.10;99.90
23471;DHT22;11908;50.806;4.424;2023-02-03T08:22:08;10.10;99.90
23471;DHT22;11908;50.806;4.424;2023-02-03T08:24:43;10.00;99.90
23471;DHT22;11908;50.806;4.424;2023-02-03T08:27:18;10.00;99.90
23471;DHT22;11908;50.806;4.424;2023-02-03T08:29:44;10.00;99.90
23471;DHT22;11908;50.806;4.424;2023-02-03T08:32:12;9.90;99.90
23471;DHT22;11908;50.806;4.424;2023-02-03T08:34:38;9.90;99.90
23471;DHT22;11908;50.806;4.424;2023-02-03T08:37:04;9.90;99.90
23471;DHT22;11908;50.806;4.424;2023-02-03T08:39:31;10.00;99.90
23471;DHT22;11908;50.806;4.424;2023-02-03T08:41:57;10.10;99.90
23471;DHT22;11908;50.806;4.424;2023-02-03T08:44:23;10.10;99.90
23471;DHT22;11908;50.806;4.424;2023-02-03T08:46:50;10.10;99.90
23471;DHT22;11908;50.806;4.424;2023-02-03T08:49:16;10.20;99.90
23471;DHT22;11908;50.806;4.424;2023-02-03T08:51:43;10.40;99.90
23471;DHT22;11908;50.806;4.424;2023-02-03T08:54:09;10.40;99.90
23471;DHT22;11908;50.806;4.424;2023-02-03T08:56:37;10.50;99.90
23471;DHT22;11908;50.806;4.424;2023-02-03T08:59:03;10.40;99.90
23471;DHT22;11908;50.806;4.424;2023-02-03T09:01:29;10.40;99.90
23471;DHT22;11908;50.806;4.424;2023-02-03T09:03:55;10.50;99.90
23471;DHT22;11908;50.806;4.424;2023-02-03T09:06:21;10.60;99.90
23471;DHT22;11908;50.806;4.424;2023-02-03T09:08:47;10.60;99.90
23471;DHT22;11908;50.806;4.424;2023-02-03T09:11:16;10.60;99.90
23471;DHT22;11908;50.806;4.424;2023-02-03T09:13:42;10.60;99.90
23471;DHT22;11908;50.806;4.424;2023-02-03T09:16:10;10.60;99.90
23471;DHT22;11908;50.806;4.424;2023-02-03T09:18:37;10.70;99.90
23471;DHT22;11908;50.806;4.424;2023-02-03T09:21:05;10.70;99.90
23471;DHT22;11908;50.806;4.424;2023-02-03T09:23:31;10.60;99.90
23471;DHT22;11908;50.806;4.424;2023-02-03T09:26:01;10.60;99.90
23471;DHT22;11908;50.806;4.424;2023-02-03T09:28:27;10.50;99.90
23471;DHT22;11908;50.806;4.424;2023-02-03T09:30:52;10.50;99.90
23471;DHT22;11908;50.806;4.424;2023-02-03T09:33:18;10.50;99.90
23471;DHT22;11908;50.806;4.424;2023-02-03T09:35:51;10.50;99.90
23471;DHT22;11908;50.806;4.424;2023-02-03T09:38:17;10.60;99.90
23471;DHT22;11908;50.806;4.424;2023-02-03T09:40:44;10.70;99.90
23471;DHT22;11908;50.806;4.424;2023-02-03T09:46:10;10.60;99.90
23471;DHT22;11908;50.806;4.424;2023-02-03T09:48:42;10.60;99.90
23471;DHT22;11908;50.806;4.424;2023-02-03T09:51:20;10.60;99.90
23471;DHT22;11908;50.806;4.424;2023-02-03T09:53:56;10.60;99.90
23471;DHT22;11908;50.806;4.424;2023-02-03T09:56:28;10.70;99.90
23471;DHT22;11908;50.806;4.424;2023-02-03T09:58:54;10.70;99.90
23471;DHT22;11908;50.806;4.424;2023-02-03T10:01:21;10.70;99.90
23471;DHT22;11908;50.806;4.424;2023-02-03T10:03:57;10.70;99.90
23471;DHT22;11908;50.806;4.424;2023-02-03T10:06:40;10.70;99.90
23471;DHT22;11908;50.806;4.424;2023-02-03T10:09:28;10.80;99.90
23471;DHT22;11908;50.806;4.424;2023-02-03T10:12:10;10.80;99.90
23471;DHT22;11908;50.806;4.424;2023-02-03T10:17:40;10.90;99.90
23471;DHT22;11908;50.806;4.424;2023-02-03T10:22:40;10.90;99.90
23471;DHT22;11908;50.806;4.424;2023-02-03T10:27:42;10.90;99.90
23471;DHT22;11908;50.806;4.424;2023-02-03T10:30:30;10.90;99.90
23471;DHT22;11908;50.806;4.424;2023-02-03T10:33:08;11.00;99.90
23471;DHT22;11908;50.806;4.424;2023-02-03T10:38:23;11.10;99.90
23471;DHT22;11908;50.806;4.424;2023-02-03T10:40:52;11.20;99.90
23471;DHT22;11908;50.806;4.424;2023-02-03T10:43:18;11.40;99.90
23471;DHT22;11908;50.806;4.424;2023-02-03T10:46:02;11.50;99.90
23471;DHT22;11908;50.806;4.424;2023-02-03T10:48:28;11.50;99.90
23471;DHT22;11908;50.806;4.424;2023-02-03T10:50:54;11.40;99.90
23471;DHT22;11908;50.806;4.424;2023-02-03T10:53:33;11.50;99.90
23471;DHT22;11908;50.806;4.424;2023-02-03T10:56:15;11.50;99.90
23471;DHT22;11908;50.806;4.424;2023-02-03T10:59:00;11.50;99.90
23471;DHT22;11908;50.806;4.424;2023-02-03T11:01:46;11.50;99.90
23471;DHT22;11908;50.806;4.424;2023-02-03T11:04:28;11.60;99.90
23471;DHT22;11908;50.806;4.424;2023-02-03T11:07:00;11.40;99.90
23471;DHT22;11908;50.806;4.424;2023-02-03T11:09:40;11.30;99.90
23471;DHT22;11908;50.806;4.424;2023-02-03T11:12:15;11.50;99.90
23471;DHT22;11908;50.806;4.424;2023-02-03T11:14:46;11.50;99.90
23471;DHT22;11908;50.806;4.424;2023-02-03T11:17:18;11.50;99.90
23471;DHT22;11908;50.806;4.424;2023-02-03T11:19:48;11.30;99.90
23471;DHT22;11908;50.806;4.424;2023-02-03T11:22:39;11.30;99.90
23471;DHT22;11908;50.806;4.424;2023-02-03T11:25:26;11.20;99.90
23471;DHT22;11908;50.806;4.424;2023-02-03T11:27:53;11.10;99.90
23471;DHT22;11908;50.806;4.424;2023-02-03T11:30:24;11.10;99.90
23471;DHT22;11908;50.806;4.424;2023-02-03T11:32:51;11.20;99.90
23471;DHT22;11908;50.806;4.424;2023-02-03T11:35:23;11.20;99.90
23471;DHT22;11908;50.806;4.424;2023-02-03T11:37:57;11.20;99.90
23471;DHT22;11908;50.806;4.424;2023-02-03T11:40:29;11.20;99.90
23471;DHT22;11908;50.806;4.424;2023-02-03T11:45:40;11.20;99.90
23471;DHT22;11908;50.806;4.424;2023-02-03T11:48:24;11.10;99.90
23471;DHT22;11908;50.806;4.424;2023-02-03T12:01:57;10.80;99.90
23471;DHT22;11908;50.806;4.424;2023-02-03T12:12:08;10.70;99.90
23471;DHT22;11908;50.806;4.424;2023-02-03T12:14:51;10.80;99.90
23471;DHT22;11908;50.806;4.424;2023-02-03T12:25:59;10.90;99.90
23471;DHT22;11908;50.806;4.424;2023-02-03T12:28:52;11.00;99.90
23471;DHT22;11908;50.806;4.424;2023-02-03T12:37:06;11.10;99.90
23471;DHT22;11908;50.806;4.424;2023-02-03T12:39:35;11.10;99.90
23471;DHT22;11908;50.806;4.424;2023-02-03T12:44:49;11.10;99.90
23471;DHT22;11908;50.806;4.424;2023-02-03T12:47:29;11.10;99.90
23471;DHT22;11908;50.806;4.424;2023-02-03T12:49:59;11.10;99.90
23471;DHT22;11908;50.806;4.424;2023-02-03T12:52:30;11.10;99.90
23471;DHT22;11908;50.806;4.424;2023-02-03T12:55:14;11.20;99.90
23471;DHT22;11908;50.806;4.424;2023-02-03T12:57:43;11.20;99.90
23471;DHT22;11908;50.806;4.424;2023-02-03T13:00:33;11.30;99.90
23471;DHT22;11908;50.806;4.424;2023-02-03T13:06:01;11.30;99.90
23471;DHT22;11908;50.806;4.424;2023-02-03T13:08:36;11.50;99.90
23471;DHT22;11908;50.806;4.424;2023-02-03T13:13:49;11.60;99.90
23471;DHT22;11908;50.806;4.424;2023-02-03T13:16:18;11.60;99.90
23471;DHT22;11908;50.806;4.424;2023-02-03T13:18:51;11.50;99.90
23471;DHT22;11908;50.806;4.424;2023-02-03T13:21:18;11.60;99.90
23471;DHT22;11908;50.806;4.424;2023-02-03T13:23:43;11.60;99.90
23471;DHT22;11908;50.806;4.424;2023-02-03T13:42:29;11.70;99.90
23471;DHT22;11908;50.806;4.424;2023-02-03T13:44:58;11.80;99.90
23471;DHT22;11908;50.806;4.424;2023-02-03T13:47:29;11.90;99.90
23471;DHT22;11908;50.806;4.424;2023-02-03T13:49:59;11.90;99.90
23471;DHT22;11908;50.806;4.424;2023-02-03T13:55:28;11.90;99.90
23471;DHT22;11908;50.806;4.424;2023-02-03T13:57:54;11.90;99.90
23471;DHT22;11908;50.806;4.424;2023-02-03T14:05:46;11.90;99.90
23471;DHT22;11908;50.806;4.424;2023-02-03T14:16:40;11.80;99.90
23471;DHT22;11908;50.806;4.424;2023-02-03T14:21:48;11.90;99.90
23471;DHT22;11908;50.806;4.424;2023-02-03T14:24:16;11.90;99.90
23471;DHT22;11908;50.806;4.424;2023-02-03T14:26:43;11.90;99.90
23471;DHT22;11908;50.806;4.424;2023-02-03T14:29:27;11.90;99.90
23471;DHT22;11908;50.806;4.424;2023-02-03T14:36:54;12.00;99.90
23471;DHT22;11908;50.806;4.424;2023-02-03T14:59:17;11.80;99.90
23471;DHT22;11908;50.806;4.424;2023-02-03T15:06:48;11.90;99.90
23471;DHT22;11908;50.806;4.424;2023-02-03T15:09:46;11.90;99.90
23471;DHT22;11908;50.806;4.424;2023-02-03T15:12:23;11.80;99.90
23471;DHT22;11908;50.806;4.424;2023-02-03T15:14:50;11.80;99.90
23471;DHT22;11908;50.806;4.424;2023-02-03T15:17:25;11.70;99.90
23471;DHT22;11908;50.806;4.424;2023-02-03T15:19:51;11.90;99.90
23471;DHT22;11908;50.806;4.424;2023-02-03T15:22:36;11.90;99.90
23471;DHT22;11908;50.806;4.424;2023-02-03T15:25:03;11.80;99.90
23471;DHT22;11908;50.806;4.424;2023-02-03T15:27:38;11.90;99.90
23471;DHT22;11908;50.806;4.424;2023-02-03T15:30:25;11.90;99.90
23471;DHT22;11908;50.806;4.424;2023-02-03T15:33:21;11.90;99.90
23471;DHT22;11908;50.806;4.424;2023-02-03T15:35:53;11.80;99.90
23471;DHT22;11908;50.806;4.424;2023-02-03T15:38:36;11.80;99.90
23471;DHT22;11908;50.806;4.424;2023-02-03T15:41:06;11.70;99.90
23471;DHT22;11908;50.806;4.424;2023-02-03T15:43:41;11.70;99.90
23471;DHT22;11908;50.806;4.424;2023-02-03T15:56:46;11.90;99.90
23471;DHT22;11908;50.806;4.424;2023-02-03T15:59:31;11.80;99.90
23471;DHT22;11908;50.806;4.424;2023-02-03T16:02:01;11.70;99.90
23471;DHT22;11908;50.806;4.424;2023-02-03T16:04:30;11.70;99.90
23471;DHT22;11908;50.806;4.424;2023-02-03T16:06:56;11.60;99.90
23471;DHT22;11908;50.806;4.424;2023-02-03T16:09:38;11.70;99.90
23471;DHT22;11908;50.806;4.424;2023-02-03T16:14:36;11.60;99.90
23471;DHT22;11908;50.806;4.424;2023-02-03T16:17:02;11.60;99.90
23471;DHT22;11908;50.806;4.424;2023-02-03T16:19:29;11.60;99.90
23471;DHT22;11908;50.806;4.424;2023-02-03T16:21:57;11.60;99.90
23471;DHT22;11908;50.806;4.424;2023-02-03T16:30:21;11.70;99.90
23471;DHT22;11908;50.806;4.424;2023-02-03T16:35:54;11.70;99.90
23471;DHT22;11908;50.806;4.424;2023-02-03T16:38:43;11.70;99.90
23471;DHT22;11908;50.806;4.424;2023-02-03T16:41:28;11.60;99.90
23471;DHT22;11908;50.806;4.424;2023-02-03T16:44:13;11.50;99.90
23471;DHT22;11908;50.806;4.424;2023-02-03T16:46:57;11.60;99.90
23471;DHT22;11908;50.806;4.424;2023-02-03T16:49:41;11.70;99.90
23471;DHT22;11908;50.806;4.424;2023-02-03T16:52:26;11.60;99.90
23471;DHT22;11908;50.806;4.424;2023-02-03T16:54:51;11.50;99.90
23471;DHT22;11908;50.806;4.424;2023-02-03T16:57:17;11.40;99.90
23471;DHT22;11908;50.806;4.424;2023-02-03T16:59:43;11.50;99.90
23471;DHT22;11908;50.806;4.424;2023-02-03T17:02:10;11.50;99.90
23471;DHT22;11908;50.806;4.424;2023-02-03T17:04:35;11.50;99.90
23471;DHT22;11908;50.806;4.424;2023-02-03T17:07:01;11.60;99.90
23471;DHT22;11908;50.806;4.424;2023-02-03T17:09:30;11.50;99.90
23471;DHT22;11908;50.806;4.424;2023-02-03T17:12:00;11.50;99.90
23471;DHT22;11908;50.806;4.424;2023-02-03T17:14:26;11.50;99.90
23471;DHT22;11908;50.806;4.424;2023-02-03T17:16:52;11.50;99.90
23471;DHT22;11908;50.806;4.424;2023-02-03T17:19:18;11.40;99.90
23471;DHT22;11908;50.806;4.424;2023-02-03T17:21:44;11.40;99.90
23471;DHT22;11908;50.806;4.424;2023-02-03T17:24:10;11.40;99.90
23471;DHT22;11908;50.806;4.424;2023-02-03T17:26:36;11.40;99.90
23471;DHT22;11908;50.806;4.424;2023-02-03T17:29:02;11.30;99.90
23471;DHT22;11908;50.806;4.424;2023-02-03T17:31:29;11.20;99.90
23471;DHT22;11908;50.806;4.424;2023-02-03T17:33:55;11.30;99.90
23471;DHT22;11908;50.806;4.424;2023-02-03T17:36:21;11.30;99.90
23471;DHT22;11908;50.806;4.424;2023-02-03T17:38:54;11.30;99.90
23471;DHT22;11908;50.806;4.424;2023-02-03T17:41:22;11.30;99.90
23471;DHT22;11908;50.806;4.424;2023-02-03T17:43:49;11.20;99.90
23471;DHT22;11908;50.806;4.424;2023-02-03T17:46:18;11.20;99.90
23471;DHT22;11908;50.806;4.424;2023-02-03T17:48:44;11.20;99.90
23471;DHT22;11908;50.806;4.424;2023-02-03T17:51:14;11.20;99.90
23471;DHT22;11908;50.806;4.424;2023-02-03T17:53:40;11.20;99.90
23471;DHT22;11908;50.806;4.424;2023-02-03T17:56:11;11.30;99.90
23471;DHT22;11908;50.806;4.424;2023-02-03T17:58:39;11.10;99.90
23471;DHT22;11908;50.806;4.424;2023-02-03T18:01:10;11.10;99.90
23471;DHT22;11908;50.806;4.424;2023-02-03T18:03:43;11.10;99.90
23471;DHT22;11908;50.806;4.424;2023-02-03T18:06:09;11.10;99.90
23471;DHT22;11908;50.806;4.424;2023-02-03T18:08:36;11.10;99.90
23471;DHT22;11908;50.806;4.424;2023-02-03T18:11:02;11.10;99.90
23471;DHT22;11908;50.806;4.424;2023-02-03T18:13:29;11.10;99.90
23471;DHT22;11908;50.806;4.424;2023-02-03T18:15:58;11.20;99.90
23471;DHT22;11908;50.806;4.424;2023-02-03T18:18:23;11.20;99.90
23471;DHT22;11908;50.806;4.424;2023-02-03T18:20:51;11.20;99.90
23471;DHT22;11908;50.806;4.424;2023-02-03T18:23:16;11.30;99.90
23471;DHT22;11908;50.806;4.424;2023-02-03T18:25:45;11.30;99.90
23471;DHT22;11908;50.806;4.424;2023-02-03T18:28:10;11.10;99.90
23471;DHT22;11908;50.806;4.424;2023-02-03T18:30:36;11.20;99.90
23471;DHT22;11908;50.806;4.424;2023-02-03T18:33:02;11.20;99.90
23471;DHT22;11908;50.806;4.424;2023-02-03T18:35:28;11.20;99.90
23471;DHT22;11908;50.806;4.424;2023-02-03T18:37:54;11.20;99.90